^^
Saratoga-Weather Station Historical Data
Daily Summary for January 5, 2020 Units:  Metric    English   Both
Daily Weekly Monthly Yearly Custom
  High: Low: Average:
Temperature: 7.3 °C 0.6 °C 4.1 °C
Dew Point: 4.4 °C -0.3 °C 1.6 °C
Humidity: 94% 63% 84%
Wind Speed: 13km/h 0km/h 2.6km/h
Wind Gust: 17.7km/h - -
Wind- - WSW
Pressure: 1035.9 hPa 1025.7 hPa -
Precipitation: 0.2 mm    
Historical Graphs
 
 
Tabular Data for January 5, 2020
Time Temperature Dew Point Pressure Wind Wind Speed Wind Gust Humidity Rainfall Rate (Hourly) solar
00:00 5.2 °C 4 °C 1025.7 hPa West 4.7 km/h 17.7 km/h 92% 0.0 mm 0 W/m2
00:05 5.1 °C 4.1 °C 1025.7 hPa West 6.4 km/h 12.9 km/h 93% 0.0 mm 0 W/m2
00:10 5.1 °C 4.1 °C 1025.7 hPa WSW 13 km/h 14.5 km/h 93% 0.0 mm 0 W/m2
00:15 5.2 °C 4.2 °C 1026.1 hPa West 11.1 km/h 14.5 km/h 93% 0.0 mm 0 W/m2
00:20 5.4 °C 4.4 °C 1026.4 hPa WNW 13 km/h 14.5 km/h 93% 0.0 mm 0 W/m2
00:25 5.4 °C 4.4 °C 1026.4 hPa SW 7.9 km/h 12.9 km/h 93% 0.0 mm 0 W/m2
00:30 5.4 °C 4.4 °C 1026.4 hPa WNW 7.9 km/h 17.7 km/h 93% 0.0 mm 0 W/m2
00:35 5.4 °C 4.2 °C 1026.8 hPa WSW 13 km/h 12.9 km/h 92% 0.0 mm 0 W/m2
00:40 5.4 °C 4.2 °C 1026.8 hPa WNW 4.7 km/h 16.1 km/h 92% 0.0 mm 0 W/m2
00:45 5.3 °C 4.1 °C 1026.8 hPa West 6.4 km/h 12.9 km/h 92% 0.0 mm 0 W/m2
00:50 5.3 °C 4.3 °C 1026.8 hPa West 6.4 km/h 14.5 km/h 93% 0.0 mm 0 W/m2
00:55 5.3 °C 4.1 °C 1027.1 hPa West 4.7 km/h 12.9 km/h 92% 0.0 mm 0 W/m2
01:00 5.3 °C 4.1 °C 1027.1 hPa WNW 11.1 km/h 14.5 km/h 92% 0.0 mm 0 W/m2
01:05 5.3 °C 4.1 °C 1027.1 hPa West 9.7 km/h 9.7 km/h 92% 0.0 mm 0 W/m2
01:10 5.2 °C 4 °C 1027.1 hPa West 6.4 km/h 9.7 km/h 92% 0.0 mm 0 W/m2
01:15 5.1 °C 3.9 °C 1027.1 hPa West 11.1 km/h 11.3 km/h 92% 0.0 mm 0 W/m2
01:20 5.1 °C 3.9 °C 1027.4 hPa WSW 13 km/h 12.9 km/h 92% 0.0 mm 0 W/m2
01:25 5.1 °C 3.9 °C 1027.4 hPa WSW 7.9 km/h 12.9 km/h 92% 0.0 mm 0 W/m2
01:30 5.2 °C 4 °C 1027.4 hPa WNW 4.7 km/h 11.3 km/h 92% 0.0 mm 0 W/m2
01:35 5.2 °C 4 °C 1027.4 hPa West 6.4 km/h 11.3 km/h 92% 0.0 mm 0 W/m2
01:40 5.2 °C 4 °C 1027.8 hPa WNW 6.4 km/h 12.9 km/h 92% 0.0 mm 0 W/m2
01:45 5.2 °C 3.9 °C 1027.8 hPa WSW 4.7 km/h 11.3 km/h 91% 0.0 mm 0 W/m2
01:50 5.1 °C 3.8 °C 1028.1 hPa WNW 4.7 km/h 12.9 km/h 91% 0.0 mm 0 W/m2
01:55 4.9 °C 3.6 °C 1028.1 hPa West 3.2 km/h 6.4 km/h 91% 0.0 mm 0 W/m2
02:00 4.9 °C 3.7 °C 1028.1 hPa WNW 1.4 km/h 3.2 km/h 92% 0.0 mm 0 W/m2
02:05 4.8 °C 3.6 °C 1028.5 hPa WNW 1.4 km/h 3.2 km/h 92% 0.0 mm 0 W/m2
02:10 4.7 °C 3.5 °C 1028.5 hPa WNW 3.2 km/h 3.2 km/h 92% 0.0 mm 0 W/m2
02:15 4.6 °C 3.4 °C 1028.5 hPa West 4.7 km/h 6.4 km/h 92% 0.0 mm 0 W/m2
02:21 4.4 °C 3.2 °C 1028.5 hPa West 3.2 km/h 4.8 km/h 92% 0.0 mm 0 W/m2
02:26 4.3 °C 3.3 °C 1028.8 hPa West 4.7 km/h 11.3 km/h 93% 0.0 mm 0 W/m2
02:31 4.3 °C 3.3 °C 1028.8 hPa West 4.7 km/h 6.4 km/h 93% 0.0 mm 0 W/m2
02:36 4.3 °C 3.3 °C 1028.8 hPa West 6.4 km/h 9.7 km/h 93% 0.0 mm 0 W/m2
02:41 4.2 °C 3.2 °C 1028.8 hPa West 4.7 km/h 6.4 km/h 93% 0.0 mm 0 W/m2
02:46 4.2 °C 3.2 °C 1029.1 hPa WSW 4.7 km/h 6.4 km/h 93% 0.0 mm 0 W/m2
03:01 4.2 °C 3.2 °C 1029.1 hPa WNW 4.7 km/h 6.4 km/h 93% 0.0 mm 0 W/m2
03:06 4.2 °C 3.2 °C 1029.5 hPa WNW 4.7 km/h 6.4 km/h 93% 0.0 mm 0 W/m2
03:11 4.3 °C 3.1 °C 1029.5 hPa SW 4.7 km/h 6.4 km/h 92% 0.0 mm 0 W/m2
03:17 4.3 °C 3 °C 1029.5 hPa WNW 4.7 km/h 9.7 km/h 91% 0.0 mm 0 W/m2
03:22 4.2 °C 2.9 °C 1029.5 hPa WNW 11.1 km/h 11.3 km/h 91% 0.0 mm 0 W/m2
03:27 4.1 °C 2.6 °C 1029.5 hPa WNW 6.4 km/h 17.7 km/h 90% 0.0 mm 0 W/m2
03:32 4.1 °C 2.6 °C 1029.5 hPa West 3.2 km/h 14.5 km/h 90% 0.0 mm 0 W/m2
03:37 4.1 °C 2.5 °C 1029.5 hPa WNW 4.7 km/h 17.7 km/h 89% 0.0 mm 0 W/m2
03:42 4.1 °C 2.3 °C 1029.5 hPa West 6.4 km/h 9.7 km/h 88% 0.0 mm 0 W/m2
03:47 4.1 °C 2.3 °C 1029.8 hPa WNW 6.4 km/h 16.1 km/h 88% 0.0 mm 0 W/m2
03:52 4.1 °C 2.3 °C 1029.8 hPa WNW 9.7 km/h 9.7 km/h 88% 0.0 mm 0 W/m2
03:57 4 °C 2.2 °C 1029.8 hPa WSW 4.7 km/h 14.5 km/h 88% 0.0 mm 0 W/m2
04:02 4.1 °C 2.1 °C 1030.1 hPa WNW 4.7 km/h 11.3 km/h 87% 0.0 mm 0 W/m2
04:07 4.1 °C 2 °C 1030.1 hPa WNW 4.7 km/h 12.9 km/h 86% 0.0 mm 0 W/m2
04:12 3.9 °C 1.9 °C 1030.5 hPa West 4.7 km/h 6.4 km/h 87% 0.0 mm 0 W/m2
04:17 3.7 °C 1.7 °C 1030.5 hPa WNW 4.7 km/h 9.7 km/h 87% 0.0 mm 0 W/m2
04:22 3.6 °C 1.8 °C 1030.5 hPa West 6.4 km/h 6.4 km/h 88% 0.0 mm 0 W/m2
04:27 3.6 °C 2 °C 1030.8 hPa NW 4.7 km/h 9.7 km/h 89% 0.0 mm 0 W/m2
04:32 3.7 °C 1.9 °C 1030.8 hPa WNW 3.2 km/h 4.8 km/h 88% 0.0 mm 0 W/m2
04:37 3.8 °C 2 °C 1030.8 hPa WNW 3.2 km/h 4.8 km/h 88% 0.0 mm 0 W/m2
04:42 3.9 °C 2.1 °C 1031.2 hPa Calm   1.6 km/h 88% 0.0 mm 0 W/m2
04:47 4 °C 2 °C 1031.2 hPa North 6.4 km/h 6.4 km/h 87% 0.0 mm 0 W/m2
04:52 4.2 °C 2.2 °C 1031.2 hPa NW 1.4 km/h 4.8 km/h 87% 0.0 mm 0 W/m2
04:57 4.3 °C 2.2 °C 1031.2 hPa NNW 3.2 km/h 4.8 km/h 86% 0.0 mm 0 W/m2
05:02 4.3 °C 2.2 °C 1031.2 hPa NW 4.7 km/h 6.4 km/h 86% 0.0 mm 0 W/m2
05:07 4.1 °C 2 °C 1031.2 hPa WNW 3.2 km/h 3.2 km/h 86% 0.0 mm 0 W/m2
05:12 4 °C 1.9 °C 1031.2 hPa WSW 3.2 km/h 6.4 km/h 86% 0.0 mm 0 W/m2
05:17 3.9 °C 1.8 °C 1031.5 hPa West 6.4 km/h 6.4 km/h 86% 0.0 mm 0 W/m2
05:22 3.9 °C 1.8 °C 1031.5 hPa WSW 7.9 km/h 8 km/h 86% 0.0 mm 0 W/m2
05:27 3.9 °C 1.8 °C 1031.5 hPa WNW 4.7 km/h 9.7 km/h 86% 0.0 mm 0 W/m2
05:32 3.9 °C 1.8 °C 1031.5 hPa WSW 6.4 km/h 12.9 km/h 86% 0.0 mm 0 W/m2
05:37 3.9 °C 1.8 °C 1031.5 hPa WSW 4.7 km/h 8 km/h 86% 0.0 mm 0 W/m2
05:42 3.8 °C 1.7 °C 1031.5 hPa WSW 6.4 km/h 6.4 km/h 86% 0.0 mm 0 W/m2
05:47 3.8 °C 1.7 °C 1031.5 hPa WSW 4.7 km/h 8 km/h 86% 0.0 mm 0 W/m2
05:52 3.7 °C 1.6 °C 1031.5 hPa WNW 1.4 km/h 4.8 km/h 86% 0.0 mm 0 W/m2
05:57 3.6 °C 1.5 °C 1031.8 hPa West 4.7 km/h 8 km/h 86% 0.0 mm 0 W/m2
06:03 3.6 °C 1.5 °C 1031.8 hPa West 6.4 km/h 9.7 km/h 86% 0.0 mm 0 W/m2
06:08 3.5 °C 1.4 °C 1031.8 hPa West 4.7 km/h 6.4 km/h 86% 0.0 mm 0 W/m2
06:13 3.5 °C 1.4 °C 1031.8 hPa West 4.7 km/h 9.7 km/h 86% 0.0 mm 0 W/m2
06:18 3.4 °C 1.3 °C 1031.8 hPa West 4.7 km/h 6.4 km/h 86% 0.0 mm 0 W/m2
06:23 3.4 °C 1.3 °C 1031.8 hPa WNW 3.2 km/h 3.2 km/h 86% 0.0 mm 0 W/m2
06:28 3.3 °C 1.2 °C 1031.8 hPa WNW 3.2 km/h 4.8 km/h 86% 0.0 mm 0 W/m2
06:33 3.3 °C 1.2 °C 1031.8 hPa WNW 1.4 km/h 3.2 km/h 86% 0.0 mm 0 W/m2
06:38 3.2 °C 1.1 °C 1032.2 hPa Calm     86% 0.0 mm 0 W/m2
06:43 3.1 °C 1.1 °C 1032.2 hPa West 1.4 km/h 3.2 km/h 87% 0.0 mm 0 W/m2
06:48 3 °C 1 °C 1032.2 hPa West 1.4 km/h 3.2 km/h 87% 0.0 mm 0 W/m2
06:53 2.9 °C 1 °C 1032.2 hPa West 1.4 km/h 3.2 km/h 87% 0.0 mm 0 W/m2
06:58 2.9 °C 1.1 °C 1032.2 hPa West 3.2 km/h 4.8 km/h 88% 0.0 mm 0 W/m2
07:03 2.9 °C 1.1 °C 1032.2 hPa West 1.4 km/h 3.2 km/h 88% 0.0 mm 0 W/m2
07:08 2.8 °C 1 °C 1032.5 hPa West 1.4 km/h 4.8 km/h 88% 0.0 mm 0 W/m2
07:13 2.9 °C 1.1 °C 1032.5 hPa West 1.4 km/h 9.7 km/h 88% 0.0 mm 0 W/m2
07:18 3 °C 1.2 °C 1032.5 hPa West 1.4 km/h 3.2 km/h 88% 0.0 mm 0 W/m2
07:23 3 °C 1.2 °C 1032.5 hPa WSW 3.2 km/h 9.7 km/h 88% 0.0 mm 0 W/m2
07:28 3 °C 1.2 °C 1032.5 hPa WNW 1.4 km/h 4.8 km/h 88% 0.0 mm 0 W/m2
07:33 3 °C 1.2 °C 1032.8 hPa WSW 3.2 km/h 6.4 km/h 88% 0.0 mm 0 W/m2
07:39 2.9 °C 1.1 °C 1032.8 hPa WSW 1.4 km/h 4.8 km/h 88% 0.0 mm 0 W/m2
07:44 2.9 °C 1.1 °C 1032.8 hPa WSW 1.4 km/h 8 km/h 88% 0.0 mm 0 W/m2
07:49 2.9 °C 1.1 °C 1032.8 hPa West 1.4 km/h 9.7 km/h 88% 0.0 mm 0 W/m2
07:54 2.9 °C 1.1 °C 1032.8 hPa Calm   3.2 km/h 88% 0.0 mm 0 W/m2
07:59 2.9 °C 1 °C 1032.8 hPa WSW 4.7 km/h 6.4 km/h 87% 0.0 mm 0 W/m2
08:04 2.8 °C 0.9 °C 1033.2 hPa WSW 6.4 km/h 6.4 km/h 87% 0.0 mm 5 W/m2
08:09 2.8 °C 0.9 °C 1033.2 hPa WSW 3.2 km/h 6.4 km/h 87% 0.0 mm 7 W/m2
08:14 2.8 °C 1 °C 1033.2 hPa WSW 4.7 km/h 9.7 km/h 88% 0.0 mm 9 W/m2
08:19 3 °C 1 °C 1033.2 hPa West 6.4 km/h 9.7 km/h 87% 0.0 mm 11 W/m2
08:24 3.2 °C 1.2 °C 1033.2 hPa West 9.7 km/h 12.9 km/h 87% 0.0 mm 12 W/m2
08:30 3.2 °C 1.1 °C 1033.5 hPa West 3.2 km/h 4.8 km/h 86% 0.0 mm 12 W/m2
08:35 3.1 °C 1 °C 1033.5 hPa WNW 3.2 km/h 12.9 km/h 86% 0.0 mm 12 W/m2
08:40 3.1 °C 1.1 °C 1033.5 hPa WNW 3.2 km/h 4.8 km/h 87% 0.0 mm 14 W/m2
08:45 3.1 °C 1.1 °C 1033.9 hPa West 1.4 km/h 3.2 km/h 87% 0.0 mm 18 W/m2
08:50 3.1 °C 1.1 °C 1033.9 hPa West 3.2 km/h 3.2 km/h 87% 0.0 mm 19 W/m2
08:55 3 °C 1 °C 1033.9 hPa Calm   3.2 km/h 87% 0.0 mm 25 W/m2
09:00 2.8 °C 0.9 °C 1033.9 hPa Calm   1.6 km/h 87% 0.0 mm 35 W/m2
09:05 2.6 °C 0.8 °C 1034.2 hPa WSW 4.7 km/h 4.8 km/h 88% 0.0 mm 54 W/m2
09:10 2.8 °C 1.2 °C 1034.2 hPa West 3.2 km/h 6.4 km/h 89% 0.0 mm 56 W/m2
09:15 3.1 °C 1.3 °C 1034.2 hPa West 3.2 km/h 4.8 km/h 88% 0.0 mm 47 W/m2
09:20 3.2 °C 1.4 °C 1034.5 hPa WNW 3.2 km/h 4.8 km/h 88% 0.0 mm 46 W/m2
09:26 3.4 °C 1.6 °C 1034.5 hPa West 3.2 km/h 4.8 km/h 88% 0.0 mm 49 W/m2
09:31 3.6 °C 1.6 °C 1034.5 hPa West 3.2 km/h 4.8 km/h 87% 0.0 mm 54 W/m2
09:36 3.6 °C 1.6 °C 1034.5 hPa WNW 1.4 km/h 3.2 km/h 87% 0.0 mm 44 W/m2
09:41 3.4 °C 1.4 °C 1034.5 hPa Calm   3.2 km/h 87% 0.0 mm 49 W/m2
09:46 3.3 °C 1.3 °C 1034.5 hPa WNW 4.7 km/h 4.8 km/h 87% 0.0 mm 74 W/m2
09:51 3.2 °C 1.4 °C 1034.5 hPa West 1.4 km/h 6.4 km/h 88% 0.0 mm 120 W/m2
09:56 3.2 °C 1.6 °C 1034.5 hPa Calm   3.2 km/h 89% 0.0 mm 105 W/m2
10:01 3.2 °C 1.6 °C 1034.5 hPa Calm   6.4 km/h 89% 0.0 mm 116 W/m2
10:06 3.3 °C 1.7 °C 1034.9 hPa NW 9.7 km/h 11.3 km/h 89% 0.0 mm 123 W/m2
10:11 3.7 °C 1.9 °C 1034.5 hPa WNW 4.7 km/h 4.8 km/h 88% 0.0 mm 67 W/m2
10:16 4 °C 2 °C 1034.5 hPa NW 3.2 km/h 4.8 km/h 87% 0.0 mm 56 W/m2
10:21 4.2 °C 2.1 °C 1034.5 hPa WNW 4.7 km/h 6.4 km/h 86% 0.0 mm 39 W/m2
10:26 4.3 °C 2 °C 1034.9 hPa Calm   3.2 km/h 85% 0.0 mm 42 W/m2
10:31 4.4 °C 2.1 °C 1034.9 hPa NW 6.4 km/h 11.3 km/h 85% 0.0 mm 70 W/m2
10:36 4.6 °C 2.1 °C 1034.5 hPa NW 4.7 km/h 12.9 km/h 84% 0.0 mm 54 W/m2
10:41 4.7 °C 2.1 °C 1034.9 hPa NNW 9.7 km/h 9.7 km/h 83% 0.0 mm 46 W/m2
10:46 4.9 °C 2.1 °C 1034.9 hPa NNW 1.4 km/h 6.4 km/h 82% 0.0 mm 46 W/m2
10:51 5 °C 2.2 °C 1034.9 hPa ENE 1.4 km/h 9.7 km/h 82% 0.0 mm 67 W/m2
10:56 5.1 °C 2.3 °C 1034.9 hPa NNW 9.7 km/h 9.7 km/h 82% 0.0 mm 97 W/m2
11:01 5.1 °C 2.1 °C 1034.9 hPa WNW 4.7 km/h 11.3 km/h 81% 0.0 mm 102 W/m2
11:06 5.2 °C 2 °C 1034.9 hPa WSW 4.7 km/h 6.4 km/h 80% 0.0 mm 146 W/m2
11:11 5.3 °C 2.1 °C 1035.2 hPa NE 7.9 km/h 8 km/h 80% 0.0 mm 51 W/m2
11:16 5.4 °C 2.1 °C 1035.2 hPa NNW 4.7 km/h 8 km/h 79% 0.0 mm 54 W/m2
11:21 5.4 °C 2.1 °C 1035.2 hPa NNW 1.4 km/h 6.4 km/h 79% 0.0 mm 134 W/m2
11:26 5.6 °C 2.2 °C 1035.6 hPa North 4.7 km/h 4.8 km/h 79% 0.0 mm 58 W/m2
11:31 5.7 °C 2.3 °C 1035.6 hPa West 1.4 km/h 6.4 km/h 79% 0.0 mm 98 W/m2
11:36 5.8 °C 2.3 °C 1035.6 hPa ENE 1.4 km/h 6.4 km/h 78% 0.0 mm 60 W/m2
11:41 5.9 °C 2.2 °C 1035.6 hPa East 1.4 km/h 6.4 km/h 77% 0.0 mm 77 W/m2
11:46 6 °C 2.1 °C 1035.6 hPa ENE 1.4 km/h 3.2 km/h 76% 0.0 mm 62 W/m2
11:51 6 °C 2.3 °C 1035.6 hPa NE 1.4 km/h 8 km/h 77% 0.0 mm 49 W/m2
11:56 6.1 °C 2.4 °C 1035.6 hPa North 1.4 km/h 6.4 km/h 77% 0.0 mm 47 W/m2
12:01 6.2 °C 2.3 °C 1035.6 hPa ENE 4.7 km/h 6.4 km/h 76% 0.0 mm 76 W/m2
12:06 6.2 °C 2.1 °C 1035.6 hPa ENE 6.4 km/h 8 km/h 75% 0.0 mm 69 W/m2
12:11 6.2 °C 1.9 °C 1035.6 hPa East 3.2 km/h 11.3 km/h 74% 0.0 mm 67 W/m2
12:16 6.2 °C 1.9 °C 1035.6 hPa SE 3.2 km/h 12.9 km/h 74% 0.0 mm 65 W/m2
12:21 6.2 °C 1.9 °C 1035.9 hPa NE 3.2 km/h 9.7 km/h 74% 0.0 mm 188 W/m2
12:26 6.4 °C 2.1 °C 1035.9 hPa SSE 1.4 km/h 4.8 km/h 74% 0.0 mm 146 W/m2
12:31 6.5 °C 2.2 °C 1035.9 hPa ENE 6.4 km/h 9.7 km/h 74% 0.0 mm 102 W/m2
12:37 6.6 °C 2.1 °C 1035.9 hPa NNW 1.4 km/h 3.2 km/h 73% 0.0 mm 67 W/m2
12:42 6.7 °C 2.2 °C 1035.6 hPa NNE 1.4 km/h 1.6 km/h 73% 0.0 mm 54 W/m2
12:47 6.6 °C 2.1 °C 1035.6 hPa NW 1.4 km/h 3.2 km/h 73% 0.0 mm 79 W/m2
12:52 6.6 °C 2.1 °C 1035.6 hPa Calm   4.8 km/h 73% 0.0 mm 46 W/m2
12:57 6.6 °C 1.9 °C 1035.6 hPa NNW 3.2 km/h 6.4 km/h 72% 0.0 mm 44 W/m2
13:02 6.6 °C 1.9 °C 1035.9 hPa NW 3.2 km/h 4.8 km/h 72% 0.0 mm 62 W/m2
13:07 6.7 °C 1.8 °C 1035.6 hPa NW 6.4 km/h 6.4 km/h 71% 0.0 mm 53 W/m2
13:12 6.7 °C 1.6 °C 1035.6 hPa West 1.4 km/h 9.7 km/h 70% 0.0 mm 39 W/m2
13:17 6.7 °C 1.6 °C 1035.6 hPa WNW 3.2 km/h 6.4 km/h 70% 0.0 mm 81 W/m2
13:22 6.8 °C 1.3 °C 1035.6 hPa ENE 1.4 km/h 14.5 km/h 68% 0.0 mm 49 W/m2
13:27 6.9 °C 1.6 °C 1035.6 hPa West 3.2 km/h 4.8 km/h 69% 0.0 mm 113 W/m2
13:32 7 °C 1.5 °C 1035.6 hPa ESE 4.7 km/h 6.4 km/h 68% 0.0 mm 151 W/m2
13:37 7 °C 1.3 °C 1035.6 hPa Calm   3.2 km/h 67% 0.0 mm 84 W/m2
13:42 6.9 °C 1.4 °C 1035.6 hPa Calm   6.4 km/h 68% 0.0 mm 77 W/m2
13:47 6.9 °C 1.6 °C 1035.6 hPa North 1.4 km/h 3.2 km/h 69% 0.0 mm 40 W/m2
13:52 6.9 °C 1.6 °C 1035.6 hPa West 3.2 km/h 3.2 km/h 69% 0.0 mm 102 W/m2
13:57 6.9 °C 0.8 °C 1035.6 hPa Calm   3.2 km/h 65% 0.0 mm 77 W/m2
14:02 7.1 °C 1.2 °C 1035.6 hPa Calm   1.6 km/h 66% 0.0 mm 62 W/m2
14:07 7.1 °C 0.7 °C 1035.6 hPa West 3.2 km/h 3.2 km/h 64% 0.0 mm 47 W/m2
14:12 7.2 °C 0.8 °C 1035.9 hPa Calm   3.2 km/h 64% 0.0 mm 53 W/m2
14:17 7.2 °C 0.6 °C 1035.9 hPa Calm   3.2 km/h 63% 0.0 mm 104 W/m2
14:22 7.3 °C 0.7 °C 1035.6 hPa Calm   6.4 km/h 63% 0.0 mm 35 W/m2
14:27 7.3 °C 0.7 °C 1035.6 hPa East 1.4 km/h 3.2 km/h 63% 0.0 mm 40 W/m2
14:32 7.3 °C 0.9 °C 1035.9 hPa Calm   4.8 km/h 64% 0.0 mm 62 W/m2
14:37 7.3 °C 0.7 °C 1035.6 hPa East 4.7 km/h 6.4 km/h 63% 0.0 mm 42 W/m2
14:42 7.3 °C 0.7 °C 1035.6 hPa East 1.4 km/h 1.6 km/h 63% 0.0 mm 58 W/m2
14:47 7.2 °C 0.8 °C 1035.6 hPa SSE 1.4 km/h 6.4 km/h 64% 0.0 mm 39 W/m2
14:52 7.2 °C 1.1 °C 1035.9 hPa Calm   3.2 km/h 65% 0.0 mm 39 W/m2
14:57 7.1 °C 1.4 °C 1035.6 hPa Calm   1.6 km/h 67% 0.0 mm 46 W/m2
15:02 6.9 °C 1.2 °C 1035.6 hPa East 3.2 km/h 3.2 km/h 67% 0.0 mm 33 W/m2
15:07 6.9 °C 1 °C 1035.6 hPa ESE 3.2 km/h 6.4 km/h 66% 0.0 mm 32 W/m2
15:12 7.1 °C 1 °C 1035.6 hPa SE 3.2 km/h 3.2 km/h 65% 0.0 mm 33 W/m2
15:17 7.1 °C 1 °C 1035.6 hPa Calm   6.4 km/h 65% 0.0 mm 30 W/m2
15:22 7.1 °C 1.6 °C 1035.6 hPa Calm     68% 0.0 mm 30 W/m2
15:27 6.9 °C 1.8 °C 1035.6 hPa Calm     70% 0.0 mm 32 W/m2
15:32 6.8 °C 1.5 °C 1035.6 hPa Calm     69% 0.0 mm 37 W/m2
15:37 6.7 °C 1.8 °C 1035.6 hPa ESE 1.4 km/h 3.2 km/h 71% 0.0 mm 30 W/m2
15:42 6.6 °C 1.9 °C 1035.6 hPa Calm     72% 0.0 mm 28 W/m2
15:47 6.4 °C 1.7 °C 1035.6 hPa Calm   1.6 km/h 72% 0.0 mm 26 W/m2
15:52 6.3 °C 1.8 °C 1035.6 hPa Calm     73% 0.0 mm 25 W/m2
15:57 6.2 °C 1.9 °C 1035.6 hPa Calm     74% 0.0 mm 25 W/m2
16:02 5.9 °C 1.6 °C 1035.6 hPa Calm     74% 0.0 mm 23 W/m2
16:07 5.8 °C 1.7 °C 1035.6 hPa Calm     75% 0.0 mm 23 W/m2
16:12 5.6 °C 1.5 °C 1035.6 hPa Calm     75% 0.0 mm 21 W/m2
16:17 5.5 °C 1.6 °C 1035.6 hPa Calm     76% 0.0 mm 21 W/m2
16:22 5.4 °C 1.5 °C 1035.6 hPa East 1.4 km/h 3.2 km/h 76% 0.0 mm 21 W/m2
16:27 5.3 °C 1.6 °C 1035.6 hPa Calm   1.6 km/h 77% 0.0 mm 21 W/m2
16:32 5.2 °C 1.5 °C 1035.6 hPa Calm   3.2 km/h 77% 0.0 mm 19 W/m2
16:37 5.2 °C 1.5 °C 1035.6 hPa Calm     77% 0.0 mm 19 W/m2
16:42 5.2 °C 1.5 °C 1035.6 hPa Calm   1.6 km/h 77% 0.0 mm 19 W/m2
16:47 5.1 °C 1.6 °C 1035.6 hPa Calm   1.6 km/h 78% 0.0 mm 18 W/m2
16:52 5 °C 1.5 °C 1035.6 hPa Calm   1.6 km/h 78% 0.0 mm 16 W/m2
16:57 4.9 °C 1.4 °C 1035.6 hPa Calm   1.6 km/h 78% 0.0 mm 16 W/m2
17:02 4.8 °C 1.3 °C 1035.6 hPa East 1.4 km/h 3.2 km/h 78% 0.0 mm 14 W/m2
17:07 4.7 °C 1.2 °C 1035.6 hPa East 1.4 km/h 1.6 km/h 78% 0.0 mm 14 W/m2
17:12 4.7 °C 1.4 °C 1035.6 hPa Calm   1.6 km/h 79% 0.0 mm 12 W/m2
17:17 4.6 °C 1.3 °C 1035.6 hPa East 1.4 km/h 1.6 km/h 79% 0.0 mm 11 W/m2
17:22 4.5 °C 1 °C 1035.6 hPa Calm   1.6 km/h 78% 0.0 mm 7 W/m2
17:27 4.4 °C 0.9 °C 1035.2 hPa East 1.4 km/h 3.2 km/h 78% 0.0 mm 5 W/m2
17:32 4.4 °C 0.9 °C 1035.6 hPa SSE 1.4 km/h 3.2 km/h 78% 0.0 mm 0 W/m2
17:37 4.3 °C 1 °C 1035.6 hPa SSE 1.4 km/h 3.2 km/h 79% 0.0 mm 0 W/m2
17:42 4.1 °C 0.8 °C 1035.6 hPa SSE 1.4 km/h 1.6 km/h 79% 0.0 mm 0 W/m2
17:47 4 °C 0.9 °C 1035.2 hPa Calm   1.6 km/h 80% 0.0 mm 0 W/m2
17:52 3.9 °C 0.8 °C 1035.6 hPa SSE 1.4 km/h 1.6 km/h 80% 0.0 mm 0 W/m2
17:57 3.7 °C 0.9 °C 1035.6 hPa Calm   1.6 km/h 82% 0.0 mm 0 W/m2
18:02 3.7 °C 1.1 °C 1035.2 hPa Calm     83% 0.0 mm 0 W/m2
18:08 3.7 °C 1.2 °C 1035.2 hPa Calm   1.6 km/h 84% 0.2 mm 0 W/m2
18:13 3.7 °C 1.4 °C 1035.6 hPa Calm     85% 0.2 mm 0 W/m2
18:18 3.8 °C 1.7 °C 1035.6 hPa WSW 1.4 km/h 4.8 km/h 86% 0.2 mm 0 W/m2
18:23 4 °C 1.7 °C 1035.6 hPa Calm   3.2 km/h 85% 0.2 mm 0 W/m2
18:28 4 °C 1.7 °C 1035.6 hPa Calm     85% 0.2 mm 0 W/m2
18:33 3.9 °C 1.6 °C 1035.6 hPa Calm     85% 0.2 mm 0 W/m2
18:38 3.8 °C 1.5 °C 1035.6 hPa Calm     85% 0.2 mm 0 W/m2
18:43 3.7 °C 1.4 °C 1035.6 hPa Calm     85% 0.2 mm 0 W/m2
18:48 3.6 °C 1.5 °C 1035.6 hPa Calm     86% 0.2 mm 0 W/m2
18:53 3.4 °C 1.3 °C 1035.6 hPa WSW 1.4 km/h 3.2 km/h 86% 0.2 mm 0 W/m2
18:58 3.3 °C 1.3 °C 1035.6 hPa Calm     87% 0.2 mm 0 W/m2
19:03 3.2 °C 1.2 °C 1035.6 hPa Calm     87% 0.2 mm 0 W/m2
19:08 3.1 °C 1.1 °C 1035.6 hPa Calm     87% 0.0 mm 0 W/m2
19:13 2.9 °C 1 °C 1035.6 hPa Calm     87% 0.0 mm 0 W/m2
19:18 2.8 °C 1 °C 1035.6 hPa Calm   1.6 km/h 88% 0.0 mm 0 W/m2
19:23 2.7 °C 0.9 °C 1035.6 hPa Calm     88% 0.0 mm 0 W/m2
19:28 2.6 °C 1 °C 1035.6 hPa Calm   3.2 km/h 89% 0.0 mm 0 W/m2
19:33 2.6 °C 1 °C 1035.6 hPa Calm     89% 0.0 mm 0 W/m2
19:38 2.4 °C 0.8 °C 1035.6 hPa Calm     89% 0.0 mm 0 W/m2
19:44 2.3 °C 0.7 °C 1035.6 hPa Calm     89% 0.0 mm 0 W/m2
19:49 2.2 °C 0.7 °C 1035.6 hPa WSW 3.2 km/h 3.2 km/h 90% 0.0 mm 0 W/m2
19:54 2.3 °C 0.8 °C 1035.9 hPa Calm   1.6 km/h 90% 0.0 mm 0 W/m2
19:59 2.3 °C 0.8 °C 1035.9 hPa Calm     90% 0.0 mm 0 W/m2
20:04 2.2 °C 0.7 °C 1035.9 hPa Calm   1.6 km/h 90% 0.0 mm 0 W/m2
20:09 2.1 °C 0.6 °C 1035.9 hPa Calm   3.2 km/h 90% 0.0 mm 0 W/m2
20:14 2.1 °C 0.6 °C 1035.9 hPa Calm     90% 0.0 mm 0 W/m2
20:19 2 °C 0.7 °C 1035.9 hPa Calm   3.2 km/h 91% 0.0 mm 0 W/m2
20:24 2 °C 0.7 °C 1035.6 hPa Calm     91% 0.0 mm 0 W/m2
20:29 1.9 °C 0.6 °C 1035.9 hPa Calm     91% 0.0 mm 0 W/m2
20:34 1.8 °C 0.5 °C 1035.9 hPa Calm     91% 0.0 mm 0 W/m2
20:39 1.8 °C 0.5 °C 1035.9 hPa Calm     91% 0.0 mm 0 W/m2
20:44 1.7 °C 0.4 °C 1035.9 hPa Calm     91% 0.0 mm 0 W/m2
20:49 1.6 °C 0.3 °C 1035.9 hPa Calm     91% 0.0 mm 0 W/m2
20:54 1.5 °C 0.2 °C 1035.9 hPa Calm     91% 0.0 mm 0 W/m2
20:59 1.4 °C 0.1 °C 1035.9 hPa Calm     91% 0.0 mm 0 W/m2
21:04 1.4 °C 0.1 °C 1035.9 hPa Calm     91% 0.0 mm 0 W/m2
21:09 1.3 °C 0.1 °C 1035.9 hPa Calm     92% 0.0 mm 0 W/m2
21:14 1.3 °C 0.1 °C 1035.9 hPa Calm     92% 0.0 mm 0 W/m2
21:19 1.2 °C 0 °C 1035.9 hPa Calm     92% 0.0 mm 0 W/m2
21:24 1.2 °C 0 °C 1035.9 hPa Calm     92% 0.0 mm 0 W/m2
21:29 1.2 °C 0 °C 1035.9 hPa Calm     92% 0.0 mm 0 W/m2
21:34 1.2 °C 0.2 °C 1035.9 hPa Calm     93% 0.0 mm 0 W/m2
21:39 1.1 °C -0.1 °C 1035.9 hPa Calm     92% 0.0 mm 0 W/m2
21:44 1.1 °C 0.1 °C 1035.9 hPa Calm     93% 0.0 mm 0 W/m2
21:49 1.1 °C 0.1 °C 1035.9 hPa Calm     93% 0.0 mm 0 W/m2
21:54 1.1 °C 0.1 °C 1035.9 hPa Calm     93% 0.0 mm 0 W/m2
21:59 1.1 °C 0.1 °C 1035.9 hPa Calm     93% 0.0 mm 0 W/m2
22:04 1.1 °C 0.1 °C 1035.6 hPa Calm     93% 0.0 mm 0 W/m2
22:09 1.1 °C 0.1 °C 1035.6 hPa Calm     93% 0.0 mm 0 W/m2
22:14 0.9 °C -0.1 °C 1035.9 hPa Calm     93% 0.0 mm 0 W/m2
22:20 0.9 °C -0.1 °C 1035.9 hPa Calm     93% 0.0 mm 0 W/m2
22:25 0.8 °C -0.2 °C 1035.9 hPa Calm     93% 0.0 mm 0 W/m2
22:30 0.8 °C -0.2 °C 1035.9 hPa Calm     93% 0.0 mm 0 W/m2
22:35 0.8 °C -0.2 °C 1035.6 hPa Calm     93% 0.0 mm 0 W/m2
22:40 0.8 °C -0.2 °C 1035.9 hPa Calm     93% 0.0 mm 0 W/m2
22:45 0.7 °C -0.3 °C 1035.6 hPa Calm     93% 0.0 mm 0 W/m2
22:50 0.7 °C -0.2 °C 1035.6 hPa Calm   1.6 km/h 94% 0.0 mm 0 W/m2
22:55 0.7 °C -0.2 °C 1035.6 hPa Calm     94% 0.0 mm 0 W/m2
23:00 0.8 °C -0.1 °C 1035.6 hPa Calm     94% 0.0 mm 0 W/m2
23:05 0.8 °C -0.1 °C 1035.6 hPa Calm     94% 0.0 mm 0 W/m2
23:10 0.9 °C 0 °C 1035.6 hPa Calm     94% 0.0 mm 0 W/m2
23:15 0.8 °C -0.1 °C 1035.6 hPa Calm     94% 0.0 mm 0 W/m2
23:20 0.8 °C -0.1 °C 1035.2 hPa WSW 1.4 km/h 1.6 km/h 94% 0.0 mm 0 W/m2
23:25 0.7 °C -0.2 °C 1035.2 hPa Calm   1.6 km/h 94% 0.0 mm 0 W/m2
23:30 0.7 °C -0.2 °C 1035.2 hPa Calm     94% 0.0 mm 0 W/m2
23:35 0.7 °C -0.2 °C 1035.2 hPa Calm     94% 0.0 mm 0 W/m2
23:40 0.7 °C -0.2 °C 1035.2 hPa Calm     94% 0.0 mm 0 W/m2
23:45 0.6 °C -0.3 °C 1035.2 hPa Calm     94% 0.0 mm 0 W/m2
23:50 0.6 °C -0.3 °C 1035.2 hPa Calm     94% 0.0 mm 0 W/m2
23:55 0.6 °C -0.3 °C 1034.9 hPa Calm     94% 0.0 mm 0 W/m2
Juneau County Weather
Compliments of Weather Underground - 4 mb